createdAt,value
2022-12-03T00:01:12.817Z,101394.50
2022-12-03T00:03:41.072Z,101398.00
2022-12-03T00:06:08.551Z,101394.97
2022-12-03T00:08:39.081Z,101402.72
2022-12-03T00:11:09.249Z,101405.00
2022-12-03T00:13:42.142Z,101403.81
2022-12-03T00:16:12.203Z,101411.84
2022-12-03T00:18:46.119Z,101417.19
2022-12-03T00:21:16.166Z,101419.66
2022-12-03T00:23:43.807Z,101419.66
2022-12-03T00:26:19.602Z,101413.84
2022-12-03T00:28:52.976Z,101414.16
2022-12-03T00:31:23.753Z,101413.44
2022-12-03T00:33:54.563Z,101408.56
2022-12-03T00:36:25.206Z,101410.56
2022-12-03T00:38:55.561Z,101422.91
2022-12-03T00:41:25.634Z,101418.66
2022-12-03T00:43:56.615Z,101419.34
2022-12-03T00:46:27.558Z,101433.34
2022-12-03T00:48:55.163Z,101426.59
2022-12-03T00:51:28.211Z,101417.84
2022-12-03T00:53:58.425Z,101423.91
2022-12-03T00:56:28.446Z,101427.41
2022-12-03T00:58:58.832Z,101426.69
2022-12-03T01:01:26.272Z,101433.81
2022-12-03T01:03:59.468Z,101430.44
2022-12-03T01:06:29.389Z,101435.03
2022-12-03T01:08:56.594Z,101432.31
2022-12-03T01:11:23.837Z,101435.56
2022-12-03T01:13:54.827Z,101436.03
2022-12-03T01:16:27.321Z,101433.03
2022-12-03T01:18:54.555Z,101432.63
2022-12-03T01:21:24.626Z,101425.09
2022-12-03T01:23:52.046Z,101431.81
2022-12-03T01:26:23.268Z,101428.38
2022-12-03T01:28:53.296Z,101431.78
2022-12-03T01:31:23.206Z,101440.53
2022-12-03T01:33:54.301Z,101429.19
2022-12-03T01:36:21.586Z,101432.31
2022-12-03T01:38:48.903Z,101441.78
2022-12-03T01:41:23.656Z,101431.97
2022-12-03T01:43:53.297Z,101431.50
2022-12-03T01:46:25.430Z,101430.28
2022-12-03T01:48:55.939Z,101427.00
2022-12-03T01:51:25.951Z,101430.13
2022-12-03T01:53:57.816Z,101418.38
2022-12-03T01:56:28.054Z,101420.50
2022-12-03T01:58:59.138Z,101430.09
2022-12-03T02:01:27.285Z,101427.88
2022-12-03T02:03:54.573Z,101419.50
2022-12-03T02:06:23.985Z,101422.56
2022-12-03T02:08:54.984Z,101421.06
2022-12-03T02:11:28.032Z,101424.34
2022-12-03T02:14:10.752Z,101423.13
2022-12-03T02:16:43.050Z,101425.06
2022-12-03T02:19:29.273Z,101425.19
2022-12-03T02:22:19.639Z,101423.63
2022-12-03T02:25:21.073Z,101431.66
2022-12-03T02:27:55.662Z,101426.84
2022-12-03T02:30:25.224Z,101425.00
2022-12-03T02:32:54.083Z,101429.81
2022-12-03T02:35:24.052Z,101428.91
2022-12-03T02:38:19.332Z,101426.47
2022-12-03T02:41:03.743Z,101422.56
2022-12-03T02:43:41.159Z,101436.06
2022-12-03T02:46:17.676Z,101433.88
2022-12-03T02:48:54.424Z,101432.31
2022-12-03T02:51:32.201Z,101435.34
2022-12-03T02:54:09.269Z,101431.34
2022-12-03T02:56:42.981Z,101442.13
2022-12-03T02:59:24.672Z,101440.28
2022-12-03T03:01:58.557Z,101438.63
2022-12-03T03:04:31.765Z,101436.78
2022-12-03T03:07:02.736Z,101446.47
2022-12-03T03:09:30.315Z,101448.38
2022-12-03T03:12:00.197Z,101442.69
2022-12-03T03:14:32.745Z,101443.69
2022-12-03T03:17:10.417Z,101441.50
2022-12-03T03:19:46.992Z,101439.91
2022-12-03T03:22:24.273Z,101433.75
2022-12-03T03:25:01.517Z,101439.28
2022-12-03T03:27:41.470Z,101438.16
2022-12-03T03:30:13.234Z,101432.94
2022-12-03T03:32:52.560Z,101438.81
2022-12-03T03:35:30.092Z,101436.69
2022-12-03T03:38:00.861Z,101430.69
2022-12-03T03:40:34.818Z,101433.56
2022-12-03T03:43:05.924Z,101431.81
2022-12-03T03:45:37.807Z,101432.22
2022-12-03T03:48:12.247Z,101432.81
2022-12-03T03:50:41.793Z,101439.63
2022-12-03T03:53:15.541Z,101434.66
2022-12-03T03:55:49.329Z,101436.34
2022-12-03T03:58:22.417Z,101429.38
2022-12-03T04:00:53.438Z,101433.50
2022-12-03T04:03:27.397Z,101431.50
2022-12-03T04:06:00.209Z,101435.97
2022-12-03T04:08:36.689Z,101438.84
2022-12-03T04:11:13.287Z,101435.47
2022-12-03T04:13:46.863Z,101441.19
2022-12-03T04:16:21.276Z,101442.16
2022-12-03T04:18:57.258Z,101440.56
2022-12-03T04:21:37.780Z,101452.00
2022-12-03T04:24:09.211Z,101449.25
2022-12-03T04:26:42.310Z,101460.94
2022-12-03T04:29:20.385Z,101460.41
2022-12-03T04:31:54.854Z,101458.56
2022-12-03T04:34:31.894Z,101455.28
2022-12-03T04:37:00.208Z,101451.34
2022-12-03T04:39:39.216Z,101461.97
2022-12-03T04:42:16.484Z,101456.22
2022-12-03T04:44:49.558Z,101460.47
2022-12-03T04:47:27.173Z,101454.81
2022-12-03T04:50:04.569Z,101452.94
2022-12-03T04:52:43.418Z,101446.66
2022-12-03T04:55:22.971Z,101449.72
2022-12-03T04:57:54.170Z,101449.88
2022-12-03T05:00:27.613Z,101451.94
2022-12-03T05:02:59.343Z,101447.63
2022-12-03T05:05:32.455Z,101456.00
2022-12-03T05:08:06.835Z,101453.59
2022-12-03T05:11:03.197Z,101455.47
2022-12-03T05:13:40.174Z,101452.00
2022-12-03T05:16:12.347Z,101447.50
2022-12-03T05:18:45.527Z,101446.31
2022-12-03T05:21:16.172Z,101453.22
2022-12-03T05:23:50.515Z,101461.00
2022-12-03T05:26:26.966Z,101468.19
2022-12-03T05:29:04.127Z,101457.53
2022-12-03T05:31:41.667Z,101457.34
2022-12-03T05:34:18.600Z,101460.44
2022-12-03T05:36:55.297Z,101464.78
2022-12-03T05:39:34.426Z,101462.50
2022-12-03T05:42:05.029Z,101467.38
2022-12-03T05:44:39.199Z,101467.78
2022-12-03T05:47:12.612Z,101472.59
2022-12-03T05:49:49.059Z,101473.25
2022-12-03T05:52:21.830Z,101482.06
2022-12-03T05:55:04.425Z,101486.41
2022-12-03T05:57:39.081Z,101483.53
2022-12-03T06:00:15.806Z,101482.81
2022-12-03T06:02:48.917Z,101491.56
2022-12-03T06:05:23.163Z,101495.72
2022-12-03T06:07:57.249Z,101494.34
2022-12-03T06:10:32.203Z,101501.78
2022-12-03T06:13:11.237Z,101495.16
2022-12-03T06:15:48.859Z,101501.13
2022-12-03T06:18:23.472Z,101495.16
2022-12-03T06:21:00.123Z,101510.59
2022-12-03T06:23:36.271Z,101516.41
2022-12-03T06:26:13.502Z,101508.16
2022-12-03T06:28:49.707Z,101515.97
2022-12-03T06:31:28.183Z,101518.09
2022-12-03T06:33:59.321Z,101521.31
2022-12-03T06:36:34.143Z,101524.91
2022-12-03T06:39:07.906Z,101524.44
2022-12-03T06:41:37.505Z,101522.16
2022-12-03T06:44:12.775Z,101526.44
2022-12-03T06:46:46.960Z,101532.91
2022-12-03T06:49:21.501Z,101535.09
2022-12-03T06:51:53.152Z,101528.63
2022-12-03T06:54:32.491Z,101534.16
2022-12-03T06:57:04.148Z,101524.09
2022-12-03T06:59:40.054Z,101522.66
2022-12-03T07:02:13.812Z,101522.34
2022-12-03T07:04:53.175Z,101527.47
2022-12-03T07:07:26.676Z,101529.44
2022-12-03T07:09:54.234Z,101525.56
2022-12-03T07:12:24.722Z,101532.59
2022-12-03T07:14:59.708Z,101526.47
2022-12-03T07:17:30.494Z,101527.25
2022-12-03T07:20:09.242Z,101533.25
2022-12-03T07:22:45.049Z,101534.19
2022-12-03T07:25:23.919Z,101535.72
2022-12-03T07:27:55.752Z,101537.66
2022-12-03T07:30:28.926Z,101536.03
2022-12-03T07:33:03.357Z,101535.09
2022-12-03T07:35:34.426Z,101535.09
2022-12-03T07:38:09.757Z,101534.44
2022-12-03T07:40:46.416Z,101529.16
2022-12-03T07:43:17.965Z,101526.16
2022-12-03T07:45:45.031Z,101532.44
2022-12-03T07:48:18.447Z,101530.69
2022-12-03T07:50:48.322Z,101533.38
2022-12-03T07:53:19.068Z,101540.13
2022-12-03T07:55:49.835Z,101540.72
2022-12-03T07:58:22.384Z,101530.13
2022-12-03T08:00:52.251Z,101537.19
2022-12-03T08:03:24.094Z,101531.63
2022-12-03T08:05:57.675Z,101544.00
2022-12-03T08:08:25.322Z,101544.72
2022-12-03T08:10:55.636Z,101544.25
2022-12-03T08:13:28.448Z,101549.75
2022-12-03T08:15:59.010Z,101549.81
2022-12-03T08:18:29.721Z,101549.53
2022-12-03T08:21:02.892Z,101552.94
2022-12-03T08:23:34.563Z,101556.97
2022-12-03T08:26:17.510Z,101558.34
2022-12-03T08:28:48.168Z,101563.38
2022-12-03T08:31:30.838Z,101571.69
2022-12-03T08:34:40.132Z,101567.19
2022-12-03T08:37:18.381Z,101570.00
2022-12-03T08:39:54.919Z,101576.84
2022-12-03T08:42:26.577Z,101570.81
2022-12-03T08:45:00.180Z,101566.75
2022-12-03T08:47:33.398Z,101557.53
2022-12-03T08:50:20.178Z,101565.50
2022-12-03T08:52:53.144Z,101557.25
2022-12-03T08:55:38.145Z,101560.03
2022-12-03T08:58:28.256Z,101562.91
2022-12-03T09:01:05.854Z,101569.44
2022-12-03T09:03:39.672Z,101567.19
2022-12-03T09:06:10.155Z,101568.75
2022-12-03T09:08:44.670Z,101560.00
2022-12-03T09:11:18.131Z,101557.66
2022-12-03T09:13:46.307Z,101564.50
2022-12-03T09:16:21.884Z,101570.97
2022-12-03T09:18:55.503Z,101559.66
2022-12-03T09:21:25.744Z,101571.91
2022-12-03T09:24:02.239Z,101563.28
2022-12-03T09:26:33.735Z,101562.38
2022-12-03T09:29:12.291Z,101561.78
2022-12-03T09:31:41.244Z,101563.44
2022-12-03T09:34:14.413Z,101563.63
2022-12-03T09:36:52.735Z,101551.34
2022-12-03T09:39:20.107Z,101554.34
2022-12-03T09:41:51.383Z,101556.31
2022-12-03T09:44:29.413Z,101553.19
2022-12-03T09:47:04.093Z,101557.75
2022-12-03T09:49:38.906Z,101558.03
2022-12-03T09:52:13.431Z,101557.91
2022-12-03T09:54:46.853Z,101555.91
2022-12-03T09:57:21.299Z,101557.16
2022-12-03T09:59:52.733Z,101551.94
2022-12-03T10:02:27.778Z,101559.47
2022-12-03T10:04:55.976Z,101546.22
2022-12-03T10:07:30.209Z,101545.69
2022-12-03T10:09:58.155Z,101544.44
2022-12-03T10:12:31.302Z,101540.88
2022-12-03T10:15:01.808Z,101542.13
2022-12-03T10:17:35.895Z,101535.03
2022-12-03T10:20:04.509Z,101536.13
2022-12-03T10:22:34.860Z,101531.63
2022-12-03T10:25:12.638Z,101531.53
2022-12-03T10:27:41.271Z,101539.16
2022-12-03T10:30:19.115Z,101540.53
2022-12-03T10:32:49.607Z,101537.41
2022-12-03T10:35:21.303Z,101531.50
2022-12-03T10:37:57.261Z,101528.16
2022-12-03T10:40:30.044Z,101522.28
2022-12-03T10:43:32.974Z,101527.03
2022-12-03T10:46:04.465Z,101525.72
2022-12-03T10:48:37.911Z,101523.31
2022-12-03T10:51:27.760Z,101527.84
2022-12-03T10:53:58.071Z,101527.84
2022-12-03T10:56:28.800Z,101529.88
2022-12-03T10:58:59.275Z,101538.88
2022-12-03T11:01:30.635Z,101524.00
2022-12-03T11:04:05.370Z,101533.78
2022-12-03T11:06:33.304Z,101521.63
2022-12-03T11:09:06.955Z,101523.00
2022-12-03T11:11:38.728Z,101523.91
2022-12-03T11:14:15.756Z,101524.19
2022-12-03T11:16:52.832Z,101530.50
2022-12-03T11:19:40.123Z,101530.84
2022-12-03T11:22:17.564Z,101528.47
2022-12-03T11:25:23.095Z,101526.88
2022-12-03T11:28:09.102Z,101515.88
2022-12-03T11:30:51.868Z,101516.69
2022-12-03T11:33:33.888Z,101518.63
2022-12-03T11:36:04.871Z,101516.91
2022-12-03T11:38:38.203Z,101514.84
2022-12-03T11:41:18.848Z,101509.09
2022-12-03T11:43:52.198Z,101511.59
2022-12-03T11:46:36.044Z,101511.59
2022-12-03T11:49:35.686Z,101510.84
2022-12-03T11:52:20.938Z,101513.19
2022-12-03T11:55:18.210Z,101505.50
2022-12-03T11:58:01.153Z,101497.66
2022-12-03T12:00:34.978Z,101507.09
2022-12-03T12:03:05.650Z,101501.47
2022-12-03T12:05:36.058Z,101507.09
2022-12-03T12:08:23.427Z,101511.56
2022-12-03T12:10:51.770Z,101507.91
2022-12-03T12:13:48.926Z,101505.13
2022-12-03T12:16:39.544Z,101505.22
2022-12-03T12:19:30.494Z,101514.13
2022-12-03T12:22:13.026Z,101506.81
2022-12-03T12:24:47.478Z,101505.41
2022-12-03T12:27:31.931Z,101501.63
2022-12-03T12:30:13.635Z,101505.91
2022-12-03T12:32:46.141Z,101502.66
2022-12-03T12:35:23.476Z,101509.56
2022-12-03T12:37:59.103Z,101507.97
2022-12-03T12:40:31.706Z,101504.53
2022-12-03T12:43:14.218Z,101509.97
2022-12-03T12:45:44.373Z,101509.19
2022-12-03T12:48:14.483Z,101502.41
2022-12-03T12:50:47.237Z,101503.91
2022-12-03T12:53:33.908Z,101515.69
2022-12-03T12:56:31.674Z,101506.66
2022-12-03T12:59:12.916Z,101510.06
2022-12-03T13:01:41.303Z,101507.97
2022-12-03T13:04:15.167Z,101511.66
2022-12-03T13:06:46.656Z,101511.84
2022-12-03T13:09:21.566Z,101514.56
2022-12-03T13:11:55.719Z,101512.38
2022-12-03T13:14:31.280Z,101515.59
2022-12-03T13:17:01.671Z,101505.63
2022-12-03T13:19:48.258Z,101513.53
2022-12-03T13:22:25.185Z,101503.91
2022-12-03T13:24:56.003Z,101503.91
2022-12-03T13:27:29.368Z,101511.66
2022-12-03T13:30:07.745Z,101511.22
2022-12-03T13:32:42.040Z,101514.63
2022-12-03T13:35:30.871Z,101509.75
2022-12-03T13:38:13.603Z,101509.97
2022-12-03T13:40:45.860Z,101503.91
2022-12-03T13:43:18.713Z,101513.63
2022-12-03T13:45:52.600Z,101509.63
2022-12-03T13:48:29.076Z,101510.44
2022-12-03T13:51:01.370Z,101505.06
2022-12-03T13:53:40.934Z,101504.59
2022-12-03T13:56:20.572Z,101504.97
2022-12-03T13:58:50.914Z,101510.78
2022-12-03T14:01:18.214Z,101515.63
2022-12-03T14:03:47.083Z,101516.16
2022-12-03T14:06:21.003Z,101514.53
2022-12-03T14:08:51.245Z,101522.56
2022-12-03T14:11:18.516Z,101515.94
2022-12-03T14:14:00.250Z,101519.22
2022-12-03T14:16:42.569Z,101521.56
2022-12-03T14:19:13.072Z,101523.41
2022-12-03T14:21:47.389Z,101515.94
2022-12-03T14:24:15.257Z,101521.19
2022-12-03T14:26:48.840Z,101521.78
2022-12-03T14:29:22.086Z,101518.81
2022-12-03T14:31:58.957Z,101514.91
2022-12-03T14:34:29.322Z,101525.94
2022-12-03T14:37:02.175Z,101529.19
2022-12-03T14:39:33.200Z,101519.63
2022-12-03T14:42:03.769Z,101531.44
2022-12-03T14:44:34.723Z,101527.59
2022-12-03T14:47:05.446Z,101523.91
2022-12-03T14:49:35.758Z,101536.31
2022-12-03T14:52:12.203Z,101535.53
2022-12-03T14:54:44.062Z,101548.69
2022-12-03T14:57:21.777Z,101549.53
2022-12-03T14:59:51.787Z,101545.81
2022-12-03T15:02:24.960Z,101546.59
2022-12-03T15:04:57.895Z,101552.22
2022-12-03T15:07:28.924Z,101549.72
2022-12-03T15:10:00.022Z,101546.50
2022-12-03T15:12:32.468Z,101543.03
2022-12-03T15:15:03.024Z,101552.28
2022-12-03T15:17:33.728Z,101552.91
2022-12-03T15:20:04.600Z,101554.88
2022-12-03T15:22:32.237Z,101557.97
2022-12-03T15:25:06.148Z,101552.47
2022-12-03T15:27:37.477Z,101551.09
2022-12-03T15:30:11.685Z,101555.66
2022-12-03T15:32:45.133Z,101555.25
2022-12-03T15:35:15.120Z,101555.66
2022-12-03T15:37:43.087Z,101558.44
2022-12-03T15:40:14.622Z,101564.31
2022-12-03T15:42:45.377Z,101559.63
2022-12-03T15:45:17.237Z,101558.91
2022-12-03T15:47:47.767Z,101565.81
2022-12-03T15:50:15.813Z,101557.47
2022-12-03T15:52:46.761Z,101565.53
2022-12-03T15:55:19.811Z,101568.00
2022-12-03T15:57:53.461Z,101571.69
2022-12-03T16:00:21.021Z,101575.22
2022-12-03T16:02:53.134Z,101580.16
2022-12-03T16:05:24.161Z,101578.75
2022-12-03T16:07:54.780Z,101593.69
2022-12-03T16:10:25.611Z,101586.34
2022-12-03T16:12:53.688Z,101593.56
2022-12-03T16:15:27.313Z,101597.34
2022-12-03T16:18:00.952Z,101599.31
2022-12-03T16:20:31.152Z,101601.41
2022-12-03T16:23:00.302Z,101603.09
2022-12-03T16:25:33.980Z,101599.75
2022-12-03T16:28:10.839Z,101601.56
2022-12-03T16:30:38.650Z,101600.69
2022-12-03T16:33:12.252Z,101603.16
2022-12-03T16:35:39.395Z,101610.69
2022-12-03T16:38:07.097Z,101606.41
2022-12-03T16:40:34.300Z,101605.56
2022-12-03T16:43:05.707Z,101613.03
2022-12-03T16:45:39.823Z,101612.50
2022-12-03T16:48:10.077Z,101607.81
2022-12-03T16:50:41.078Z,101610.09
2022-12-03T16:53:11.576Z,101606.75
2022-12-03T16:55:44.621Z,101613.41
2022-12-03T16:58:17.289Z,101608.31
2022-12-03T17:00:44.880Z,101614.50
2022-12-03T17:03:24.922Z,101626.25
2022-12-03T17:05:59.558Z,101611.69
2022-12-03T17:08:29.055Z,101616.09
2022-12-03T17:11:00.128Z,101619.13
2022-12-03T17:13:31.065Z,101622.09
2022-12-03T17:16:02.751Z,101617.88
2022-12-03T17:18:30.205Z,101619.66
2022-12-03T17:21:06.641Z,101620.84
2022-12-03T17:23:36.370Z,101624.53
2022-12-03T17:26:07.497Z,101617.97
2022-12-03T17:28:34.757Z,101624.66
2022-12-03T17:31:12.035Z,101627.06
2022-12-03T17:33:42.775Z,101625.31
2022-12-03T17:36:10.779Z,101621.31
2022-12-03T17:38:43.728Z,101623.41
2022-12-03T17:41:11.387Z,101630.22
2022-12-03T17:43:47.942Z,101639.66
2022-12-03T17:46:16.002Z,101633.09
2022-12-03T17:48:53.104Z,101638.47
2022-12-03T17:51:27.724Z,101643.69
2022-12-03T17:53:59.035Z,101634.47
2022-12-03T17:56:31.634Z,101634.34
2022-12-03T17:59:02.700Z,101625.31
2022-12-03T18:01:30.509Z,101641.00
2022-12-03T18:04:08.058Z,101634.31
2022-12-03T18:06:39.125Z,101642.41
2022-12-03T18:09:09.619Z,101639.13
2022-12-03T18:11:42.716Z,101644.06
2022-12-03T18:14:19.874Z,101637.66
2022-12-03T18:16:52.368Z,101650.09
2022-12-03T18:19:32.266Z,101642.53
2022-12-03T18:22:06.068Z,101646.56
2022-12-03T18:24:47.542Z,101649.47
2022-12-03T18:27:20.694Z,101662.75
2022-12-03T18:29:55.438Z,101660.56
2022-12-03T18:32:32.209Z,101660.16
2022-12-03T18:35:06.319Z,101662.38
2022-12-03T18:37:40.425Z,101660.81
2022-12-03T18:40:30.846Z,101664.94
2022-12-03T18:43:11.902Z,101669.63
2022-12-03T18:45:56.911Z,101664.22
2022-12-03T18:48:30.942Z,101666.34
2022-12-03T18:51:02.297Z,101664.00
2022-12-03T18:53:39.820Z,101664.97
2022-12-03T18:56:15.916Z,101656.63
2022-12-03T18:58:53.807Z,101655.34
2022-12-03T19:01:26.819Z,101659.69
2022-12-03T19:04:01.147Z,101654.25
2022-12-03T19:06:38.522Z,101655.34
2022-12-03T19:09:12.179Z,101660.28
2022-12-03T19:11:48.724Z,101663.50
2022-12-03T19:14:20.295Z,101656.16
2022-12-03T19:17:00.880Z,101654.63
2022-12-03T19:19:35.088Z,101657.91
2022-12-03T19:22:15.197Z,101667.41
2022-12-03T19:24:48.809Z,101665.09
2022-12-03T19:27:28.974Z,101662.31
2022-12-03T19:30:01.077Z,101662.50
2022-12-03T19:32:35.605Z,101672.31
2022-12-03T19:35:14.949Z,101664.63
2022-12-03T19:40:32.982Z,101669.88
2022-12-03T19:43:02.918Z,101665.97
2022-12-03T19:45:41.553Z,101670.09
2022-12-03T19:48:15.522Z,101677.84
2022-12-03T19:51:07.825Z,101684.66
2022-12-03T19:53:43.899Z,101677.56
2022-12-03T19:56:24.407Z,101678.44
2022-12-03T19:58:59.151Z,101681.19
2022-12-03T20:01:36.654Z,101683.66
2022-12-03T20:04:07.618Z,101689.56
2022-12-03T20:06:39.077Z,101687.50
2022-12-03T20:09:16.063Z,101679.44
2022-12-03T20:11:52.233Z,101691.28
2022-12-03T20:14:25.739Z,101691.97
2022-12-03T20:16:53.064Z,101689.13
2022-12-03T20:19:24.005Z,101678.78
2022-12-03T20:21:56.262Z,101679.94
2022-12-03T20:24:34.917Z,101690.19
2022-12-03T20:27:10.962Z,101688.88
2022-12-03T20:29:49.355Z,101694.31
2022-12-03T20:32:23.219Z,101693.34
2022-12-03T20:34:54.257Z,101694.66
2022-12-03T20:37:31.195Z,101694.53
2022-12-03T20:40:11.180Z,101694.91
2022-12-03T20:42:48.051Z,101703.41
2022-12-03T20:45:21.219Z,101702.34
2022-12-03T20:47:51.594Z,101705.69
2022-12-03T20:50:25.507Z,101697.66
2022-12-03T20:53:23.098Z,101712.50
2022-12-03T20:56:00.755Z,101713.81
2022-12-03T20:58:35.619Z,101708.66
2022-12-03T21:01:27.495Z,101707.25
2022-12-03T21:04:06.862Z,101706.44
2022-12-03T21:06:46.339Z,101708.78
2022-12-03T21:09:24.219Z,101713.09
2022-12-03T21:11:57.204Z,101715.31
2022-12-03T21:14:32.838Z,101720.19
2022-12-03T21:17:12.280Z,101718.06
2022-12-03T21:19:47.896Z,101708.38
2022-12-03T21:22:26.696Z,101717.25
2022-12-03T21:24:59.866Z,101709.13
2022-12-03T21:27:40.507Z,101716.22
2022-12-03T21:30:17.846Z,101712.72
2022-12-03T21:32:48.191Z,101717.91
2022-12-03T21:35:25.021Z,101717.19
2022-12-03T21:38:04.867Z,101714.06
2022-12-03T21:40:36.369Z,101713.91
2022-12-03T21:43:08.019Z,101715.56
2022-12-03T21:45:42.258Z,101714.00
2022-12-03T21:48:13.812Z,101711.78
2022-12-03T21:50:45.324Z,101719.16
2022-12-03T21:53:16.130Z,101717.19
2022-12-03T21:55:52.994Z,101710.28
2022-12-03T21:58:27.995Z,101712.28
2022-12-03T22:01:05.353Z,101720.28
2022-12-03T22:03:34.323Z,101721.94
2022-12-03T22:06:09.798Z,101724.34
2022-12-03T22:08:43.231Z,101719.22
2022-12-03T22:11:25.738Z,101725.50
2022-12-03T22:13:59.874Z,101727.63
2022-12-03T22:16:35.117Z,101721.94
2022-12-03T22:19:08.835Z,101725.47
2022-12-03T22:21:41.727Z,101719.50
2022-12-03T22:24:13.809Z,101714.19
2022-12-03T22:26:47.241Z,101704.34
2022-12-03T22:29:23.958Z,101709.66
2022-12-03T22:31:57.691Z,101713.50
2022-12-03T22:34:31.207Z,101709.50
2022-12-03T22:37:08.787Z,101709.16
2022-12-03T22:39:39.148Z,101709.63
2022-12-03T22:42:12.811Z,101708.47
2022-12-03T22:44:54.050Z,101705.66
2022-12-03T22:47:29.151Z,101716.50
2022-12-03T22:50:03.447Z,101719.56
2022-12-03T22:52:37.152Z,101718.16
2022-12-03T22:55:25.487Z,101716.06
2022-12-03T22:58:02.796Z,101714.59
2022-12-03T23:00:44.616Z,101709.31
2022-12-03T23:03:18.694Z,101712.56
2022-12-03T23:05:56.651Z,101720.22
2022-12-03T23:08:43.191Z,101716.81
2022-12-03T23:11:17.840Z,101717.84
2022-12-03T23:13:49.708Z,101717.44
2022-12-03T23:16:25.668Z,101717.09
2022-12-03T23:18:57.243Z,101711.63
2022-12-03T23:21:34.314Z,101713.88
2022-12-03T23:24:11.611Z,101729.06
2022-12-03T23:26:54.359Z,101715.66
2022-12-03T23:29:26.173Z,101720.78
2022-12-03T23:31:59.903Z,101719.72
2022-12-03T23:34:31.622Z,101712.16
2022-12-03T23:37:01.681Z,101709.41
2022-12-03T23:39:38.603Z,101707.47
2022-12-03T23:42:14.465Z,101700.41
2022-12-03T23:44:48.087Z,101694.13
2022-12-03T23:47:21.640Z,101689.72
2022-12-03T23:49:53.191Z,101689.19
2022-12-03T23:52:26.646Z,101687.53
2022-12-03T23:54:58.990Z,101689.66
2022-12-03T23:57:29.958Z,101677.63
